Time;durP1;ratioP1;P1;durP2;ratioP2;P2;SDS_P1;SDS_P2;PMS_P1;PMS_P2;Temp;Humidity;BMP_temperature;BMP_pressure;BME280_temperature;BME280_humidity;BME280_pressure;Samples;Min_cycle;Max_cycle;Signal;HPM_P1;HPM_P2
2023/04/20 00:00:26;;;;;;;;;;;17.90;37.20;;;;;;4994697;28;20013;-55
2023/04/20 00:02:52;;;;;;;;;;;17.90;37.30;;;;;;4995504;28;19914;-54
2023/04/20 00:05:18;;;;;;;;;;;17.90;37.20;;;;;;4994519;28;19921;-54
2023/04/20 00:07:43;;;;;;;;;;;17.90;37.10;;;;;;4994520;28;19917;-54
2023/04/20 00:10:09;;;;;;;;;;;17.80;37.00;;;;;;4995953;28;20024;-54
2023/04/20 00:12:34;;;;;;;;;;;17.80;37.10;;;;;;4994046;28;19913;-54
2023/04/20 00:15:00;;;;;;;;;;;17.80;37.20;;;;;;4994444;28;19917;-54
2023/04/20 00:17:25;;;;;;;;;;;17.80;37.10;;;;;;4995618;28;19916;-54
2023/04/20 00:19:51;;;;;;;;;;;17.80;37.10;;;;;;4994127;28;19914;-54
2023/04/20 00:22:16;;;;;;;;;;;17.80;37.00;;;;;;4992494;28;19914;-54
2023/04/20 00:24:42;;;;;;;;;;;17.80;37.00;;;;;;4993528;28;19914;-54
2023/04/20 00:27:07;;;;;;;;;;;17.80;37.00;;;;;;4994270;28;19964;-55
2023/04/20 00:29:33;;;;;;;;;;;17.80;37.00;;;;;;5002667;28;19910;-54
2023/04/20 00:31:58;;;;;;;;;;;17.80;37.00;;;;;;5007918;28;19917;-55
2023/04/20 00:34:24;;;;;;;;;;;17.80;37.10;;;;;;4994796;28;20004;-54
2023/04/20 00:36:49;;;;;;;;;;;17.70;37.10;;;;;;4994156;28;19964;-54
2023/04/20 00:39:15;;;;;;;;;;;17.70;37.10;;;;;;4992714;28;19944;-54
2023/04/20 00:41:40;;;;;;;;;;;17.70;37.10;;;;;;5001639;28;19917;-54
2023/04/20 00:44:06;;;;;;;;;;;17.70;37.30;;;;;;4992555;28;20005;-55
2023/04/20 00:46:32;;;;;;;;;;;17.70;37.30;;;;;;4993583;28;19976;-54
2023/04/20 00:48:57;;;;;;;;;;;17.70;37.40;;;;;;4990767;28;19914;-54
2023/04/20 00:51:23;;;;;;;;;;;17.70;37.50;;;;;;4974319;28;19921;-54
2023/04/20 00:53:48;;;;;;;;;;;17.70;37.60;;;;;;4973297;28;19910;-55
2023/04/20 00:56:14;;;;;;;;;;;17.70;37.60;;;;;;4983899;28;20012;-55
2023/04/20 00:58:42;;;;;;;;;;;17.70;37.80;;;;;;4991279;28;19924;-54
2023/04/20 01:01:09;;;;;;;;;;;17.70;37.70;;;;;;4977230;28;19914;-55
2023/04/20 01:03:34;;;;;;;;;;;17.70;37.90;;;;;;5001468;28;19918;-54
2023/04/20 01:06:00;;;;;;;;;;;17.70;37.90;;;;;;4990879;28;19921;-55
2023/04/20 01:08:26;;;;;;;;;;;17.70;37.90;;;;;;4995458;28;20359;-54
2023/04/20 01:10:52;;;;;;;;;;;17.70;37.90;;;;;;4998035;28;19926;-54
2023/04/20 01:13:18;;;;;;;;;;;17.70;38.00;;;;;;4993220;28;19917;-54
2023/04/20 01:15:43;;;;;;;;;;;17.70;38.00;;;;;;5004900;28;19928;-54
2023/04/20 01:18:08;;;;;;;;;;;17.80;38.10;;;;;;4994396;28;20033;-54
2023/04/20 01:20:34;;;;;;;;;;;17.90;38.10;;;;;;5002919;28;19996;-55
2023/04/20 01:22:59;;;;;;;;;;;18.00;38.20;;;;;;5006188;28;20016;-54
2023/04/20 01:25:25;;;;;;;;;;;18.10;38.20;;;;;;5011429;28;19956;-54
2023/04/20 01:27:50;;;;;;;;;;;18.30;38.00;;;;;;5007358;28;20328;-54
2023/04/20 01:30:16;;;;;;;;;;;18.50;37.80;;;;;;5003140;28;19928;-54
2023/04/20 01:32:41;;;;;;;;;;;18.70;37.50;;;;;;4995151;28;20001;-53
2023/04/20 01:35:07;;;;;;;;;;;18.80;38.10;;;;;;4998401;28;19917;-54
2023/04/20 01:37:32;;;;;;;;;;;18.90;37.30;;;;;;4995464;28;19918;-54
2023/04/20 01:39:58;;;;;;;;;;;18.90;37.30;;;;;;4990717;28;20032;-55
2023/04/20 01:42:23;;;;;;;;;;;18.90;37.40;;;;;;4993641;28;19918;-54
2023/04/20 01:44:49;;;;;;;;;;;18.90;37.30;;;;;;4992819;28;19917;-54
2023/04/20 01:47:14;;;;;;;;;;;18.90;37.30;;;;;;4992749;28;19910;-54
2023/04/20 01:49:40;;;;;;;;;;;19.00;37.50;;;;;;4993075;28;20329;-55
2023/04/20 01:52:05;;;;;;;;;;;18.90;37.50;;;;;;5004330;28;19914;-54
2023/04/20 01:54:31;;;;;;;;;;;18.90;37.50;;;;;;4995398;28;19961;-54
2023/04/20 01:56:56;;;;;;;;;;;18.90;37.50;;;;;;5008393;28;20290;-54
2023/04/20 01:59:22;;;;;;;;;;;18.90;37.60;;;;;;4992287;28;19921;-55
2023/04/20 02:01:47;;;;;;;;;;;18.90;37.70;;;;;;4992758;28;19910;-54
2023/04/20 02:04:13;;;;;;;;;;;19.00;37.80;;;;;;4993386;28;19944;-54
2023/04/20 02:06:38;;;;;;;;;;;18.90;37.80;;;;;;5024947;28;19984;-54
2023/04/20 02:09:03;;;;;;;;;;;19.00;37.80;;;;;;4990427;28;19917;-54
2023/04/20 02:11:29;;;;;;;;;;;18.90;37.80;;;;;;4992161;28;19922;-54
2023/04/20 02:13:54;;;;;;;;;;;18.90;37.80;;;;;;4992731;28;19910;-54
2023/04/20 02:16:21;;;;;;;;;;;18.90;38.10;;;;;;4998855;28;19968;-54
2023/04/20 02:18:46;;;;;;;;;;;18.80;38.00;;;;;;4993115;28;19929;-54
2023/04/20 02:21:12;;;;;;;;;;;18.80;38.10;;;;;;4992473;28;19909;-54
2023/04/20 02:23:37;;;;;;;;;;;18.80;38.10;;;;;;4991760;28;20139;-54
2023/04/20 02:26:03;;;;;;;;;;;18.70;38.10;;;;;;5011844;28;19913;-55
2023/04/20 02:28:28;;;;;;;;;;;18.70;38.30;;;;;;5004700;28;19953;-54
2023/04/20 02:30:54;;;;;;;;;;;18.70;38.20;;;;;;4992149;28;19972;-54
2023/04/20 02:33:20;;;;;;;;;;;18.70;38.20;;;;;;4988986;28;19913;-54
2023/04/20 02:35:46;;;;;;;;;;;18.70;38.40;;;;;;4992409;28;20329;-54
2023/04/20 02:38:11;;;;;;;;;;;18.60;38.40;;;;;;4993921;28;19913;-54
2023/04/20 02:40:37;;;;;;;;;;;18.60;38.40;;;;;;5031720;28;19948;-55
2023/04/20 02:43:02;;;;;;;;;;;18.60;38.50;;;;;;4993810;28;19914;-54
2023/04/20 02:45:29;;;;;;;;;;;18.60;38.50;;;;;;4994961;28;19918;-54
2023/04/20 02:47:55;;;;;;;;;;;18.50;38.60;;;;;;4994308;28;20371;-54
2023/04/20 02:50:20;;;;;;;;;;;18.50;38.60;;;;;;5011195;28;19964;-54
2023/04/20 02:52:46;;;;;;;;;;;18.50;38.60;;;;;;4998043;28;20302;-54
2023/04/20 02:55:11;;;;;;;;;;;18.50;38.70;;;;;;5003091;28;19913;-55
2023/04/20 02:57:37;;;;;;;;;;;18.40;38.70;;;;;;5003882;28;20278;-54
2023/04/20 03:00:02;;;;;;;;;;;18.40;38.80;;;;;;4997232;28;19939;-54
2023/04/20 03:02:28;;;;;;;;;;;18.40;39.00;;;;;;4995454;28;19918;-54
2023/04/20 03:04:53;;;;;;;;;;;18.40;39.00;;;;;;4998750;28;20376;-53
2023/04/20 03:07:19;;;;;;;;;;;18.50;39.00;;;;;;5001827;28;20297;-54
2023/04/20 03:09:44;;;;;;;;;;;18.50;38.90;;;;;;4998740;28;19960;-54
2023/04/20 03:12:10;;;;;;;;;;;18.50;38.90;;;;;;5007871;28;19914;-53
2023/04/20 03:14:35;;;;;;;;;;;18.50;38.80;;;;;;5005614;28;19961;-54
2023/04/20 03:17:01;;;;;;;;;;;18.60;38.90;;;;;;5002642;28;19914;-54
2023/04/20 03:19:26;;;;;;;;;;;18.70;38.90;;;;;;4994152;28;19914;-53
2023/04/20 03:21:52;;;;;;;;;;;18.60;38.70;;;;;;4996525;28;19914;-54
2023/04/20 03:24:18;;;;;;;;;;;18.70;38.80;;;;;;5000743;28;20293;-54
2023/04/20 03:26:43;;;;;;;;;;;18.70;38.80;;;;;;5045419;28;19949;-55
2023/04/20 03:29:09;;;;;;;;;;;18.70;38.80;;;;;;5003915;28;20124;-55
2023/04/20 03:31:34;;;;;;;;;;;18.70;38.80;;;;;;5003988;28;19948;-55
2023/04/20 03:34:00;;;;;;;;;;;18.70;38.80;;;;;;5006330;28;19913;-54
2023/04/20 03:36:27;;;;;;;;;;;18.70;38.80;;;;;;5010756;28;19920;-54
2023/04/20 03:38:52;;;;;;;;;;;18.70;39.00;;;;;;4990872;28;19958;-54
2023/04/20 03:41:18;;;;;;;;;;;18.60;38.90;;;;;;5003031;28;19963;-54
2023/04/20 03:43:43;;;;;;;;;;;18.60;39.00;;;;;;5001814;28;19918;-55
2023/04/20 03:46:09;;;;;;;;;;;18.60;39.10;;;;;;4997137;28;19953;-54
2023/04/20 03:48:34;;;;;;;;;;;18.50;39.10;;;;;;4993697;28;20374;-54
2023/04/20 03:51:00;;;;;;;;;;;18.50;39.20;;;;;;5002452;28;19924;-54
2023/04/20 03:53:27;;;;;;;;;;;18.50;39.30;;;;;;5007707;28;19924;-54
2023/04/20 03:55:53;;;;;;;;;;;18.50;39.30;;;;;;5012772;28;19918;-54
2023/04/20 03:58:19;;;;;;;;;;;18.50;39.40;;;;;;5002354;28;19918;-54
2023/04/20 04:00:45;;;;;;;;;;;18.50;39.40;;;;;;4998489;28;19936;-54
2023/04/20 04:03:10;;;;;;;;;;;18.50;39.40;;;;;;4994142;28;20016;-54
2023/04/20 04:05:36;;;;;;;;;;;18.40;39.50;;;;;;4991576;28;19922;-54
2023/04/20 04:08:01;;;;;;;;;;;18.40;39.50;;;;;;5006827;28;19925;-54
2023/04/20 04:10:27;;;;;;;;;;;18.40;39.60;;;;;;5001290;28;19926;-55
2023/04/20 04:12:52;;;;;;;;;;;18.50;39.70;;;;;;5002949;28;19913;-54
2023/04/20 04:15:18;;;;;;;;;;;18.50;39.70;;;;;;4993447;28;19917;-54
2023/04/20 04:17:43;;;;;;;;;;;18.50;39.80;;;;;;4995286;28;19976;-54
2023/04/20 04:20:10;;;;;;;;;;;18.50;39.90;;;;;;4998863;28;20200;-54
2023/04/20 04:22:35;;;;;;;;;;;18.50;40.50;;;;;;4995588;28;19913;-54
2023/04/20 04:25:01;;;;;;;;;;;18.50;40.00;;;;;;5007744;28;20343;-54
2023/04/20 04:27:28;;;;;;;;;;;18.50;40.10;;;;;;5000297;28;19914;-54
2023/04/20 04:29:55;;;;;;;;;;;18.50;40.10;;;;;;4992897;28;19925;-54
2023/04/20 04:32:23;;;;;;;;;;;18.50;40.10;;;;;;4993821;28;20413;-53
2023/04/20 04:34:49;;;;;;;;;;;18.50;40.10;;;;;;4991506;28;19925;-54
2023/04/20 04:37:14;;;;;;;;;;;18.50;40.20;;;;;;4996097;28;19956;-54
2023/04/20 04:39:40;;;;;;;;;;;18.50;40.20;;;;;;5001887;28;19961;-54
2023/04/20 04:42:05;;;;;;;;;;;18.50;40.20;;;;;;4996169;28;19914;-54
2023/04/20 04:44:32;;;;;;;;;;;18.50;40.20;;;;;;5013019;28;20286;-53
2023/04/20 04:46:57;;;;;;;;;;;18.50;40.20;;;;;;4999516;28;19918;-53
2023/04/20 04:49:26;;;;;;;;;;;18.50;40.20;;;;;;5004281;28;19932;-54
2023/04/20 04:51:51;;;;;;;;;;;18.50;40.30;;;;;;4993081;28;20274;-54
2023/04/20 04:54:17;;;;;;;;;;;18.50;40.20;;;;;;4992108;28;19913;-53
2023/04/20 04:56:42;;;;;;;;;;;18.50;40.30;;;;;;5001300;28;19913;-53
2023/04/20 04:59:08;;;;;;;;;;;18.50;40.30;;;;;;5006984;28;19921;-53
2023/04/20 05:01:33;;;;;;;;;;;18.40;40.30;;;;;;5006647;28;20383;-53
2023/04/20 05:03:59;;;;;;;;;;;18.40;40.40;;;;;;4999304;28;19918;-53
2023/04/20 05:06:24;;;;;;;;;;;18.40;40.50;;;;;;4991334;28;19917;-53
2023/04/20 05:08:50;;;;;;;;;;;18.40;40.60;;;;;;5000415;28;19951;-54
2023/04/20 05:11:15;;;;;;;;;;;18.40;40.60;;;;;;4992824;28;19918;-54
2023/04/20 05:13:41;;;;;;;;;;;18.40;40.70;;;;;;5005897;28;20297;-53
2023/04/20 05:16:06;;;;;;;;;;;18.40;40.60;;;;;;4989278;28;20004;-53
2023/04/20 05:18:32;;;;;;;;;;;18.40;40.60;;;;;;5006798;28;19914;-55
2023/04/20 05:20:57;;;;;;;;;;;18.40;40.70;;;;;;4994964;28;19918;-55
2023/04/20 05:23:23;;;;;;;;;;;18.40;40.70;;;;;;5009996;28;19921;-55
2023/04/20 05:25:48;;;;;;;;;;;18.50;40.70;;;;;;5011420;28;19941;-53
2023/04/20 05:28:14;;;;;;;;;;;18.50;40.70;;;;;;5002782;28;20285;-53
2023/04/20 05:30:39;;;;;;;;;;;18.40;40.80;;;;;;5009531;28;19918;-55
2023/04/20 05:33:05;;;;;;;;;;;18.40;40.90;;;;;;4996920;28;20267;-55
2023/04/20 05:35:30;;;;;;;;;;;18.40;41.00;;;;;;4995689;28;20309;-55
2023/04/20 05:37:59;;;;;;;;;;;18.40;41.00;;;;;;5008893;28;19917;-55
2023/04/20 05:40:24;;;;;;;;;;;18.40;41.00;;;;;;5005718;28;19930;-55
2023/04/20 05:42:50;;;;;;;;;;;18.40;41.00;;;;;;4992569;28;19955;-55
2023/04/20 05:45:16;;;;;;;;;;;18.40;41.00;;;;;;4990412;28;19914;-55
2023/04/20 05:47:41;;;;;;;;;;;18.40;41.00;;;;;;4988000;28;19921;-55
2023/04/20 05:50:07;;;;;;;;;;;18.50;41.00;;;;;;4998553;28;19925;-55
2023/04/20 05:52:33;;;;;;;;;;;18.50;40.90;;;;;;4999131;28;20409;-55
2023/04/20 05:54:58;;;;;;;;;;;18.50;41.00;;;;;;4988860;28;20274;-55
2023/04/20 05:57:24;;;;;;;;;;;18.50;41.00;;;;;;4992623;28;20460;-54
2023/04/20 05:59:50;;;;;;;;;;;18.50;41.00;;;;;;4998907;28;19913;-55
2023/04/20 06:02:15;;;;;;;;;;;18.50;41.00;;;;;;4984693;28;20302;-56
2023/04/20 06:04:41;;;;;;;;;;;18.50;40.90;;;;;;4985817;28;19921;-55
2023/04/20 06:07:06;;;;;;;;;;;18.50;41.00;;;;;;5001216;28;19914;-55
2023/04/20 06:09:32;;;;;;;;;;;18.40;41.10;;;;;;4986926;28;19914;-55
2023/04/20 06:11:59;;;;;;;;;;;18.40;41.30;;;;;;4992356;28;20374;-55
2023/04/20 06:14:24;;;;;;;;;;;18.40;41.50;;;;;;4979561;28;19914;-55
2023/04/20 06:16:50;;;;;;;;;;;18.30;41.50;;;;;;4992998;28;20386;-55
2023/04/20 06:19:15;;;;;;;;;;;18.40;41.60;;;;;;4995125;28;19914;-55
2023/04/20 06:21:40;;;;;;;;;;;18.30;41.70;;;;;;4989730;28;19914;-55
2023/04/20 06:24:06;;;;;;;;;;;18.30;41.80;;;;;;4995367;28;19989;-53
2023/04/20 06:26:31;;;;;;;;;;;18.30;41.90;;;;;;4997217;28;20367;-54
2023/04/20 06:28:57;;;;;;;;;;;18.30;41.90;;;;;;5013495;28;19933;-54
2023/04/20 06:31:22;;;;;;;;;;;18.30;41.80;;;;;;4984244;28;20037;-54
2023/04/20 06:33:48;;;;;;;;;;;18.40;41.90;;;;;;4995062;28;19941;-53
2023/04/20 06:36:13;;;;;;;;;;;18.40;41.80;;;;;;4995716;28;19913;-54
2023/04/20 06:38:39;;;;;;;;;;;18.40;41.80;;;;;;4993360;28;20389;-54
2023/04/20 06:41:05;;;;;;;;;;;18.50;41.80;;;;;;4998592;28;20310;-54
2023/04/20 06:43:30;;;;;;;;;;;18.50;41.80;;;;;;4995444;28;19909;-54
2023/04/20 06:45:56;;;;;;;;;;;18.40;41.80;;;;;;4995692;28;19914;-54
2023/04/20 06:48:21;;;;;;;;;;;18.40;41.90;;;;;;4995600;28;20367;-55
2023/04/20 06:50:48;;;;;;;;;;;18.40;42.00;;;;;;4996465;28;20298;-54
2023/04/20 06:53:13;;;;;;;;;;;18.40;42.00;;;;;;5005635;28;19917;-54
2023/04/20 06:55:39;;;;;;;;;;;18.50;42.00;;;;;;4997414;28;19933;-55
2023/04/20 06:58:04;;;;;;;;;;;18.50;41.90;;;;;;4997052;28;19937;-54
2023/04/20 07:00:30;;;;;;;;;;;18.50;42.00;;;;;;4992167;28;20401;-54
2023/04/20 07:02:55;;;;;;;;;;;18.40;42.20;;;;;;4992274;28;19914;-54
2023/04/20 07:05:21;;;;;;;;;;;18.40;42.10;;;;;;4993319;28;19918;-54
2023/04/20 07:07:46;;;;;;;;;;;18.40;42.10;;;;;;5006617;28;20281;-52
2023/04/20 07:10:12;;;;;;;;;;;18.60;42.20;;;;;;5001148;28;20282;-54
2023/04/20 07:12:38;;;;;;;;;;;19.30;41.30;;;;;;4997993;28;19945;-53
2023/04/20 07:15:04;;;;;;;;;;;20.10;39.90;;;;;;5007984;28;19918;-53
2023/04/20 07:17:29;;;;;;;;;;;20.70;39.00;;;;;;4998586;28;19913;-52
2023/04/20 07:19:55;;;;;;;;;;;21.00;38.70;;;;;;5009216;28;20060;-53
2023/04/20 07:22:21;;;;;;;;;;;21.00;38.60;;;;;;4994904;28;19983;-53
2023/04/20 07:24:46;;;;;;;;;;;21.20;38.50;;;;;;5004527;28;19914;-52
2023/04/20 07:27:11;;;;;;;;;;;21.30;38.10;;;;;;4994975;28;19916;-53
2023/04/20 07:29:37;;;;;;;;;;;21.50;37.90;;;;;;5000962;28;20292;-52
2023/04/20 07:32:03;;;;;;;;;;;21.70;37.70;;;;;;4993846;28;19917;-52
2023/04/20 07:34:28;;;;;;;;;;;21.90;37.60;;;;;;4992507;28;19920;-52
2023/04/20 07:36:53;;;;;;;;;;;22.10;37.30;;;;;;4989870;28;19925;-53
2023/04/20 07:39:19;;;;;;;;;;;22.20;37.20;;;;;;4992063;28;19976;-53
2023/04/20 07:41:44;;;;;;;;;;;22.20;37.20;;;;;;4989725;28;19920;-53
2023/04/20 07:44:11;;;;;;;;;;;22.10;37.40;;;;;;4992415;28;20374;-53
2023/04/20 07:46:37;;;;;;;;;;;22.00;37.90;;;;;;4991562;28;19935;-51
2023/04/20 07:49:02;;;;;;;;;;;21.80;38.90;;;;;;5011152;28;19913;-53
2023/04/20 07:51:29;;;;;;;;;;;21.60;38.40;;;;;;4987007;28;19922;-52
2023/04/20 07:53:55;;;;;;;;;;;21.50;38.80;;;;;;5000307;28;19918;-52
2023/04/20 07:56:21;;;;;;;;;;;21.30;38.90;;;;;;4995664;28;20317;-52
2023/04/20 07:58:46;;;;;;;;;;;21.20;39.30;;;;;;5013707;28;19988;-52
2023/04/20 08:01:12;;;;;;;;;;;21.10;39.50;;;;;;5000341;28;19914;-53
2023/04/20 08:03:37;;;;;;;;;;;21.00;39.70;;;;;;4987940;28;20274;-52
2023/04/20 08:06:03;;;;;;;;;;;20.90;39.80;;;;;;4995293;28;20071;-53
2023/04/20 08:08:28;;;;;;;;;;;20.90;40.20;;;;;;5025528;28;19918;-52
2023/04/20 08:10:57;;;;;;;;;;;20.90;39.90;;;;;;4996977;28;20314;-52
2023/04/20 08:13:22;;;;;;;;;;;21.00;39.80;;;;;;4997361;28;19914;-53
2023/04/20 08:15:48;;;;;;;;;;;21.40;39.20;;;;;;5021820;28;19928;-51
2023/04/20 08:18:13;;;;;;;;;;;21.60;38.70;;;;;;4997647;28;20393;-53
2023/04/20 08:20:39;;;;;;;;;;;21.70;39.00;;;;;;4992787;28;20417;-54
2023/04/20 08:23:05;;;;;;;;;;;21.70;39.30;;;;;;4984054;28;19914;-52
2023/04/20 08:25:31;;;;;;;;;;;21.70;39.30;;;;;;4991688;28;19984;-52
2023/04/20 08:27:56;;;;;;;;;;;21.80;39.30;;;;;;4992057;28;19965;-52
2023/04/20 08:30:22;;;;;;;;;;;21.80;39.20;;;;;;4990991;28;19957;-52
2023/04/20 08:32:47;;;;;;;;;;;21.90;39.10;;;;;;4999415;28;19922;-52
2023/04/20 08:35:13;;;;;;;;;;;21.80;39.10;;;;;;4986112;28;20396;-52
2023/04/20 08:37:38;;;;;;;;;;;21.80;39.30;;;;;;4986256;28;19918;-52
2023/04/20 08:40:04;;;;;;;;;;;21.70;39.50;;;;;;4992725;28;19922;-51
2023/04/20 08:42:30;;;;;;;;;;;21.60;39.70;;;;;;4991211;28;19924;-52
2023/04/20 08:44:56;;;;;;;;;;;21.50;39.90;;;;;;4998101;28;19914;-52
2023/04/20 08:47:21;;;;;;;;;;;21.50;40.10;;;;;;4993850;28;19914;-52
2023/04/20 08:49:47;;;;;;;;;;;21.40;40.10;;;;;;4992191;28;20888;-53
2023/04/20 08:52:12;;;;;;;;;;;21.30;40.30;;;;;;4998232;28;20348;-52
2023/04/20 08:54:38;;;;;;;;;;;21.30;40.60;;;;;;4993187;28;20333;-52
2023/04/20 08:57:03;;;;;;;;;;;21.40;40.60;;;;;;4992875;28;19917;-52
2023/04/20 08:59:29;;;;;;;;;;;21.40;40.40;;;;;;4996128;28;19925;-53
2023/04/20 09:01:55;;;;;;;;;;;21.50;40.20;;;;;;5022646;28;19917;-52
2023/04/20 09:04:21;;;;;;;;;;;21.70;40.10;;;;;;4991997;28;19922;-52
2023/04/20 09:06:49;;;;;;;;;;;21.90;39.90;;;;;;4993141;28;20390;-53
2023/04/20 09:09:14;;;;;;;;;;;21.90;40.00;;;;;;4982589;28;19917;-53
2023/04/20 09:11:40;;;;;;;;;;;21.80;40.00;;;;;;4984620;28;19924;-52
2023/04/20 09:14:06;;;;;;;;;;;21.70;40.10;;;;;;4986451;28;19951;-51
2023/04/20 09:16:33;;;;;;;;;;;21.60;40.30;;;;;;4990552;28;19920;-52
2023/04/20 09:18:58;;;;;;;;;;;21.60;40.40;;;;;;4988586;28;19945;-54
2023/04/20 09:21:25;;;;;;;;;;;21.50;40.70;;;;;;4986646;28;19922;-53
2023/04/20 09:23:57;;;;;;;;;;;21.30;40.90;;;;;;4981863;28;20009;-52
2023/04/20 09:26:23;;;;;;;;;;;21.30;41.00;;;;;;4987353;28;19956;-52
2023/04/20 09:28:48;;;;;;;;;;;21.20;41.30;;;;;;5020140;28;20355;-52
2023/04/20 09:31:20;;;;;;;;;;;21.10;41.20;;;;;;4990106;28;22592;-53
2023/04/20 09:33:58;;;;;;;;;;;21.60;40.80;;;;;;4995594;28;20006;-53
2023/04/20 09:36:25;;;;;;;;;;;22.30;39.80;;;;;;4992289;28;19924;-53
2023/04/20 09:39:22;;;;;;;;;;;22.60;39.20;;;;;;4999744;28;19917;-53
2023/04/20 09:41:48;;;;;;;;;;;22.70;38.90;;;;;;4993289;28;20413;-53
2023/04/20 09:44:14;;;;;;;;;;;22.80;38.80;;;;;;4993656;28;19917;-53
2023/04/20 09:46:40;;;;;;;;;;;22.70;38.80;;;;;;4987819;28;19914;-52
2023/04/20 09:49:07;;;;;;;;;;;22.80;38.80;;;;;;4986027;28;19918;-52
2023/04/20 09:51:34;;;;;;;;;;;22.90;38.70;;;;;;4979795;28;19926;-53
2023/04/20 09:54:00;;;;;;;;;;;23.10;38.40;;;;;;4998728;28;19925;-53
2023/04/20 09:56:26;;;;;;;;;;;23.40;38.10;;;;;;5001683;28;20052;-53
2023/04/20 09:58:52;;;;;;;;;;;23.50;37.90;;;;;;4993752;28;19917;-53
2023/04/20 10:01:17;;;;;;;;;;;23.60;37.80;;;;;;4996291;28;19996;-53
2023/04/20 10:03:43;;;;;;;;;;;23.70;37.60;;;;;;4997960;28;19989;-53
2023/04/20 10:06:21;;;;;;;;;;;23.90;37.40;;;;;;5024514;28;20259;-53
2023/04/20 10:08:48;;;;;;;;;;;24.00;37.20;;;;;;5003691;28;19967;-53
2023/04/20 10:11:26;;;;;;;;;;;24.20;37.00;;;;;;5006105;28;19918;-52
2023/04/20 10:13:52;;;;;;;;;;;24.30;37.10;;;;;;4988808;28;19925;-52
2023/04/20 10:16:17;;;;;;;;;;;24.30;36.80;;;;;;4998191;28;19922;-52
2023/04/20 10:18:43;;;;;;;;;;;24.30;36.80;;;;;;5001800;28;19914;-52
2023/04/20 10:21:09;;;;;;;;;;;24.30;36.90;;;;;;5001501;28;19921;-53
2023/04/20 10:23:34;;;;;;;;;;;24.20;36.90;;;;;;4999129;28;19917;-52
2023/04/20 10:26:01;;;;;;;;;;;24.10;37.00;;;;;;4997735;28;19937;-53
2023/04/20 10:28:39;;;;;;;;;;;24.00;37.30;;;;;;4996516;28;19928;-53
2023/04/20 10:31:06;;;;;;;;;;;23.80;37.60;;;;;;4997453;28;20374;-52
2023/04/20 10:33:32;;;;;;;;;;;23.70;37.70;;;;;;4996126;28;19921;-52
2023/04/20 10:35:58;;;;;;;;;;;23.60;38.00;;;;;;5004829;28;19929;-53
2023/04/20 10:38:28;;;;;;;;;;;23.40;38.20;;;;;;4993297;28;19918;-53
2023/04/20 10:40:54;;;;;;;;;;;23.20;38.50;;;;;;4996746;28;20004;-53
2023/04/20 10:43:22;;;;;;;;;;;23.10;38.80;;;;;;5018617;28;20119;-52
2023/04/20 10:45:48;;;;;;;;;;;23.20;38.90;;;;;;5010101;28;20310;-52
2023/04/20 10:48:13;;;;;;;;;;;23.40;38.60;;;;;;4997474;28;19925;-51
2023/04/20 10:50:39;;;;;;;;;;;23.70;38.20;;;;;;4992928;28;19917;-53
2023/04/20 10:53:05;;;;;;;;;;;23.90;38.00;;;;;;4999239;28;20005;-53
2023/04/20 10:55:30;;;;;;;;;;;24.00;37.70;;;;;;4993861;28;20423;-53
2023/04/20 10:57:55;;;;;;;;;;;24.10;37.70;;;;;;5006246;28;19949;-53
2023/04/20 11:00:22;;;;;;;;;;;24.10;37.70;;;;;;4996564;28;19913;-52
2023/04/20 11:02:55;;;;;;;;;;;24.10;37.80;;;;;;4997158;28;19921;-52
2023/04/20 11:05:21;;;;;;;;;;;24.20;37.70;;;;;;4992230;28;19921;-53
2023/04/20 11:07:51;;;;;;;;;;;24.30;37.60;;;;;;4994234;28;19913;-52
2023/04/20 11:10:16;;;;;;;;;;;24.50;37.30;;;;;;5004733;28;19918;-52
2023/04/20 11:12:41;;;;;;;;;;;24.60;37.30;;;;;;4991780;28;19914;-52
2023/04/20 11:15:08;;;;;;;;;;;24.70;37.30;;;;;;4996652;28;20396;-53
2023/04/20 11:17:34;;;;;;;;;;;24.90;37.10;;;;;;4990408;28;19969;-53
2023/04/20 11:20:18;;;;;;;;;;;24.90;36.80;;;;;;5000235;28;19917;-53
2023/04/20 11:22:43;;;;;;;;;;;25.00;36.70;;;;;;4990027;28;20313;-52
2023/04/20 11:25:09;;;;;;;;;;;25.10;36.70;;;;;;4990462;28;19918;-53
2023/04/20 11:27:35;;;;;;;;;;;25.10;36.60;;;;;;4982758;28;19914;-52
2023/04/20 11:30:04;;;;;;;;;;;25.20;36.60;;;;;;4999300;28;20289;-51
2023/04/20 11:32:32;;;;;;;;;;;25.20;36.50;;;;;;4992494;28;20754;-54
2023/04/20 11:34:58;;;;;;;;;;;25.20;36.60;;;;;;5000920;28;19913;-55
2023/04/20 11:37:24;;;;;;;;;;;25.30;36.60;;;;;;4997422;28;20517;-54
2023/04/20 11:40:05;;;;;;;;;;;25.20;36.70;;;;;;4989059;28;19929;-54
2023/04/20 11:42:30;;;;;;;;;;;25.30;36.80;;;;;;4993086;28;19917;-54
2023/04/20 11:44:56;;;;;;;;;;;25.20;36.80;;;;;;4997224;28;19917;-53
2023/04/20 11:47:21;;;;;;;;;;;25.10;36.90;;;;;;4991472;28;19944;-54
2023/04/20 11:49:47;;;;;;;;;;;25.10;37.10;;;;;;4982461;28;19965;-53
2023/04/20 11:52:12;;;;;;;;;;;25.10;37.00;;;;;;4982014;28;19948;-54
2023/04/20 11:54:38;;;;;;;;;;;25.10;37.20;;;;;;5005606;28;19960;-54
2023/04/20 11:57:03;;;;;;;;;;;25.00;37.30;;;;;;4993891;28;19918;-53
2023/04/20 11:59:29;;;;;;;;;;;24.90;37.50;;;;;;4992096;28;19918;-54
2023/04/20 12:01:54;;;;;;;;;;;24.80;37.60;;;;;;4988356;28;20020;-54
2023/04/20 12:04:20;;;;;;;;;;;24.70;37.90;;;;;;4986920;28;19914;-54
2023/04/20 12:06:45;;;;;;;;;;;24.50;38.10;;;;;;4995482;28;20317;-53
2023/04/20 12:09:12;;;;;;;;;;;24.50;38.20;;;;;;5007060;28;19921;-53
2023/04/20 12:11:37;;;;;;;;;;;24.60;38.30;;;;;;4996839;28;19987;-52
2023/04/20 12:14:03;;;;;;;;;;;24.70;38.10;;;;;;5004667;28;20020;-53
2023/04/20 12:16:29;;;;;;;;;;;24.80;37.90;;;;;;4994343;28;20294;-54
2023/04/20 12:18:55;;;;;;;;;;;25.00;37.70;;;;;;4990722;28;19917;-53
2023/04/20 12:21:20;;;;;;;;;;;25.10;37.70;;;;;;4991862;28;20334;-53
2023/04/20 12:23:48;;;;;;;;;;;25.20;37.60;;;;;;4990489;28;20275;-53
2023/04/20 12:26:13;;;;;;;;;;;25.30;37.40;;;;;;4990628;28;19926;-52
2023/04/20 12:28:39;;;;;;;;;;;25.40;37.30;;;;;;5007527;28;19918;-53
2023/04/20 12:31:04;;;;;;;;;;;25.30;37.30;;;;;;4988046;28;19918;-52
2023/04/20 12:33:30;;;;;;;;;;;25.10;37.50;;;;;;4993549;28;20278;-53
2023/04/20 12:35:55;;;;;;;;;;;24.90;37.60;;;;;;4993928;28;19936;-53
2023/04/20 12:38:21;;;;;;;;;;;24.70;38.20;;;;;;4995926;28;19960;-53
2023/04/20 12:40:46;;;;;;;;;;;24.50;38.70;;;;;;4994368;28;19925;-53
2023/04/20 12:43:11;;;;;;;;;;;24.20;39.10;;;;;;5002061;28;19917;-53
2023/04/20 12:45:37;;;;;;;;;;;24.00;39.50;;;;;;4989103;28;19940;-53
2023/04/20 12:48:03;;;;;;;;;;;23.70;39.70;;;;;;4980442;28;19920;-53
2023/04/20 12:50:28;;;;;;;;;;;23.50;40.10;;;;;;4989647;28;20726;-53
2023/04/20 12:52:57;;;;;;;;;;;23.40;40.50;;;;;;4992060;28;19921;-53
2023/04/20 12:55:22;;;;;;;;;;;23.20;40.70;;;;;;4995434;28;20342;-53
2023/04/20 12:57:48;;;;;;;;;;;23.00;41.10;;;;;;4990367;28;19924;-53
2023/04/20 13:00:13;;;;;;;;;;;22.80;41.40;;;;;;4988256;28;19918;-53
2023/04/20 13:02:39;;;;;;;;;;;22.70;41.70;;;;;;4989595;28;19918;-52
2023/04/20 13:05:05;;;;;;;;;;;22.60;41.90;;;;;;4991701;28;19921;-52
2023/04/20 13:07:30;;;;;;;;;;;22.50;42.00;;;;;;4990822;28;19917;-53
2023/04/20 13:09:56;;;;;;;;;;;22.40;42.30;;;;;;4989271;28;20368;-52
2023/04/20 13:12:21;;;;;;;;;;;22.30;42.40;;;;;;4992457;28;19918;-52
2023/04/20 13:14:47;;;;;;;;;;;22.20;42.50;;;;;;4995709;28;20052;-52
2023/04/20 13:17:12;;;;;;;;;;;22.20;42.70;;;;;;4985159;28;19918;-53
2023/04/20 13:19:38;;;;;;;;;;;22.10;42.70;;;;;;4984562;28;19983;-53
2023/04/20 13:22:03;;;;;;;;;;;22.00;43.20;;;;;;4994404;28;19924;-53
2023/04/20 13:24:29;;;;;;;;;;;21.80;43.50;;;;;;4989273;28;19968;-52
2023/04/20 13:26:58;;;;;;;;;;;21.80;43.70;;;;;;4995004;28;20262;-52
2023/04/20 13:29:23;;;;;;;;;;;21.80;43.50;;;;;;4989331;28;19918;-52
2023/04/20 13:31:49;;;;;;;;;;;21.90;43.40;;;;;;5020261;28;20271;-52
2023/04/20 13:34:14;;;;;;;;;;;22.10;43.20;;;;;;4992741;28;19968;-52
2023/04/20 13:36:40;;;;;;;;;;;22.40;42.80;;;;;;4992667;28;20401;-53
2023/04/20 13:39:06;;;;;;;;;;;22.60;42.10;;;;;;4991906;28;19918;-53
2023/04/20 13:41:32;;;;;;;;;;;22.80;41.80;;;;;;4988356;28;19918;-53
2023/04/20 13:43:58;;;;;;;;;;;23.00;41.50;;;;;;4990388;28;19940;-53
2023/04/20 13:46:24;;;;;;;;;;;23.10;41.50;;;;;;4989657;28;20020;-53
2023/04/20 13:48:49;;;;;;;;;;;23.00;41.40;;;;;;5022898;28;19993;-52
2023/04/20 13:51:15;;;;;;;;;;;22.90;41.70;;;;;;5021798;28;19922;-52
2023/04/20 13:53:40;;;;;;;;;;;22.80;42.00;;;;;;4992033;28;19921;-53
2023/04/20 13:56:06;;;;;;;;;;;22.60;42.20;;;;;;4990361;28;19995;-53
2023/04/20 13:58:31;;;;;;;;;;;22.40;42.50;;;;;;4998037;28;19920;-53
2023/04/20 14:00:57;;;;;;;;;;;22.30;42.80;;;;;;4993030;28;20400;-52
2023/04/20 14:03:23;;;;;;;;;;;22.20;43.00;;;;;;4985502;28;19922;-54
2023/04/20 14:05:49;;;;;;;;;;;22.10;43.20;;;;;;4991948;28;20386;-53
2023/04/20 14:08:14;;;;;;;;;;;21.90;43.40;;;;;;4994060;28;19920;-52